createdAt,value
2018-08-07T00:00:18.971Z,21.57
2018-08-07T00:01:19.228Z,21.54
2018-08-07T00:02:19.623Z,21.54
2018-08-07T00:03:18.948Z,21.56
2018-08-07T00:04:18.937Z,21.57
2018-08-07T00:05:19.205Z,21.57
2018-08-07T00:06:19.187Z,21.51
2018-08-07T00:07:19.178Z,21.48
2018-08-07T00:08:19.436Z,21.53
2018-08-07T00:09:19.158Z,21.56
2018-08-07T00:10:19.412Z,21.56
2018-08-07T00:11:18.875Z,21.54
2018-08-07T00:12:19.137Z,21.51
2018-08-07T00:13:19.390Z,21.56
2018-08-07T00:14:19.109Z,21.54
2018-08-07T00:15:19.380Z,21.54
2018-08-07T00:16:19.358Z,21.48
2018-08-07T00:17:19.101Z,21.51
2018-08-07T00:18:18.828Z,21.51
2018-08-07T00:19:19.326Z,21.51
2018-08-07T00:20:19.061Z,21.56
2018-08-07T00:21:19.315Z,21.38
2018-08-07T00:22:19.310Z,21.36
2018-08-07T00:23:19.300Z,21.39
2018-08-07T00:24:19.031Z,21.36
2018-08-07T00:25:19.284Z,21.39
2018-08-07T00:26:19.012Z,21.38
2018-08-07T00:27:19.262Z,21.32
2018-08-07T00:28:18.987Z,21.3
2018-08-07T00:29:18.978Z,21.27
2018-08-07T00:30:19.436Z,21.21
2018-08-07T00:31:18.965Z,21.23
2018-08-07T00:32:18.958Z,21.24
2018-08-07T00:33:19.208Z,21.2
2018-08-07T00:34:19.201Z,21.21
2018-08-07T00:35:18.665Z,21.2
2018-08-07T00:36:18.925Z,21.21
2018-08-07T00:37:19.171Z,21.09
2018-08-07T00:38:18.900Z,21.17
2018-08-07T00:39:18.890Z,21.06
2018-08-07T00:40:19.141Z,21.05
2018-08-07T00:41:18.876Z,21.08
2018-08-07T00:42:19.131Z,21.04
2018-08-07T00:43:18.865Z,20.98
2018-08-07T00:44:19.126Z,20.91
2018-08-07T00:45:18.873Z,20.93
2018-08-07T00:46:18.827Z,20.96
2018-08-07T00:47:19.079Z,20.96
2018-08-07T00:48:18.808Z,20.93
2018-08-07T00:49:18.803Z,20.9
2018-08-07T00:50:19.055Z,20.86
2018-08-07T00:51:19.044Z,20.81
2018-08-07T00:52:18.790Z,20.83
2018-08-07T00:53:18.761Z,20.81
2018-08-07T00:54:19.013Z,20.68
2018-08-07T00:55:19.007Z,20.8
2018-08-07T00:56:18.742Z,20.81
2018-08-07T00:57:18.739Z,20.68
2018-08-07T00:58:18.723Z,20.69
2018-08-07T00:59:18.708Z,20.83
2018-08-07T01:00:18.968Z,20.8
2018-08-07T01:01:18.700Z,20.83
2018-08-07T01:02:18.679Z,20.8
2018-08-07T01:03:18.955Z,20.76
2018-08-07T01:04:18.395Z,20.71
2018-08-07T01:05:18.735Z,20.83
2018-08-07T01:06:18.643Z,20.72
2018-08-07T01:07:18.629Z,20.69
2018-08-07T01:08:18.624Z,20.76
2018-08-07T01:09:18.620Z,20.77
2018-08-07T01:10:18.867Z,20.77
2018-08-07T01:11:18.866Z,20.69
2018-08-07T01:12:18.853Z,20.76
2018-08-07T01:13:18.580Z,20.8
2018-08-07T01:14:18.568Z,20.76
2018-08-07T01:15:18.565Z,20.77
2018-08-07T01:16:18.552Z,20.65
2018-08-07T01:17:18.800Z,20.71
2018-08-07T01:18:18.535Z,20.64
2018-08-07T01:19:18.784Z,20.65
2018-08-07T01:20:18.249Z,20.66
2018-08-07T01:21:18.765Z,20.71
2018-08-07T01:22:18.560Z,20.66
2018-08-07T01:23:18.228Z,20.68
2018-08-07T01:24:18.743Z,20.68
2018-08-07T01:25:18.461Z,20.69
2018-08-07T01:26:18.457Z,20.65
2018-08-07T01:27:18.446Z,20.71
2018-08-07T01:28:18.177Z,20.68
2018-08-07T01:29:18.166Z,20.66
2018-08-07T01:30:18.442Z,20.68
2018-08-07T01:31:18.421Z,20.69
2018-08-07T01:32:18.183Z,20.68
2018-08-07T01:33:18.651Z,20.65
2018-08-07T01:34:18.648Z,20.66
2018-08-07T01:35:18.635Z,20.59
2018-08-07T01:36:18.366Z,20.59
2018-08-07T01:37:18.094Z,20.61
2018-08-07T01:38:18.341Z,20.62
2018-08-07T01:39:18.334Z,20.5
2018-08-07T01:40:18.326Z,20.5
2018-08-07T01:41:18.576Z,20.54
2018-08-07T01:42:18.573Z,20.54
2018-08-07T01:43:18.566Z,20.5
2018-08-07T01:44:18.288Z,20.58
2018-08-07T01:45:18.019Z,20.49
2018-08-07T01:46:18.539Z,20.51
2018-08-07T01:47:17.995Z,20.49
2018-08-07T01:48:17.984Z,20.47
2018-08-07T01:49:18.522Z,20.47
2018-08-07T01:50:18.494Z,20.43
2018-08-07T01:51:18.230Z,20.47
2018-08-07T01:52:18.209Z,20.49
2018-08-07T01:53:18.209Z,20.39
2018-08-07T01:54:18.195Z,20.43
2018-08-07T01:55:18.184Z,20.39
2018-08-07T01:56:18.172Z,20.43
2018-08-07T01:57:18.428Z,20.47
2018-08-07T01:58:18.157Z,20.38
2018-08-07T01:59:18.143Z,20.46
2018-08-07T02:00:18.147Z,20.41
2018-08-07T02:01:18.128Z,20.42
2018-08-07T02:02:18.118Z,20.35
2018-08-07T02:03:18.159Z,20.42
2018-08-07T02:04:18.359Z,20.42
2018-08-07T02:05:18.353Z,20.34
2018-08-07T02:06:18.080Z,20.34
2018-08-07T02:07:18.333Z,20.38
2018-08-07T02:08:18.323Z,20.38
2018-08-07T02:09:18.050Z,20.28
2018-08-07T02:10:17.772Z,20.3
2018-08-07T02:11:18.301Z,20.28
2018-08-07T02:12:17.754Z,20.33
2018-08-07T02:13:18.300Z,20.35
2018-08-07T02:14:18.011Z,20.28
2018-08-07T02:15:17.730Z,20.27
2018-08-07T02:16:18.245Z,20.33
2018-08-07T02:17:17.716Z,20.21
2018-08-07T02:18:17.698Z,20.2
2018-08-07T02:19:17.950Z,20.23
2018-08-07T02:20:17.951Z,20.23
2018-08-07T02:21:18.196Z,20.2
2018-08-07T02:22:17.661Z,20.23
2018-08-07T02:23:18.176Z,20.1
2018-08-07T02:24:17.906Z,20.1
2018-08-07T02:25:17.897Z,20.13
2018-08-07T02:26:18.145Z,20.1
2018-08-07T02:27:17.873Z,20.1
2018-08-07T02:28:18.126Z,20.15
2018-08-07T02:29:17.862Z,20.1
2018-08-07T02:30:18.352Z,20.06
2018-08-07T02:31:18.149Z,20.1
2018-08-07T02:32:18.107Z,20.06
2018-08-07T02:33:18.086Z,20.05
2018-08-07T02:34:17.818Z,19.98
2018-08-07T02:35:17.534Z,19.98
2018-08-07T02:36:18.074Z,19.98
2018-08-07T02:37:17.786Z,19.97
2018-08-07T02:38:18.041Z,19.9
2018-08-07T02:39:18.026Z,19.84
2018-08-07T02:40:17.765Z,19.84
2018-08-07T02:41:17.746Z,19.75
2018-08-07T02:42:17.740Z,19.78
2018-08-07T02:43:17.795Z,19.86
2018-08-07T02:44:17.712Z,19.78
2018-08-07T02:45:17.967Z,19.72
2018-08-07T02:46:17.690Z,19.7
2018-08-07T02:47:17.693Z,19.66
2018-08-07T02:48:17.673Z,19.7
2018-08-07T02:49:17.396Z,19.7
2018-08-07T02:50:17.668Z,19.7
2018-08-07T02:51:17.375Z,19.61
2018-08-07T02:52:17.897Z,19.54
2018-08-07T02:53:17.621Z,19.63
2018-08-07T02:54:17.910Z,19.73
2018-08-07T02:55:17.612Z,19.66
2018-08-07T02:56:17.598Z,19.65
2018-08-07T02:57:17.605Z,19.63
2018-08-07T02:58:17.575Z,19.68
2018-08-07T02:59:17.296Z,19.69
2018-08-07T03:00:17.566Z,19.68
2018-08-07T03:01:17.582Z,19.63
2018-08-07T03:02:17.795Z,19.69
2018-08-07T03:03:17.524Z,19.58
2018-08-07T03:04:17.252Z,19.57
2018-08-07T03:05:17.508Z,19.6
2018-08-07T03:06:17.758Z,19.55
2018-08-07T03:07:17.488Z,19.55
2018-08-07T03:08:17.738Z,19.55
2018-08-07T03:09:17.722Z,19.57
2018-08-07T03:10:17.481Z,19.54
2018-08-07T03:11:17.442Z,19.53
2018-08-07T03:12:17.699Z,19.43
2018-08-07T03:13:17.689Z,19.42
2018-08-07T03:14:17.154Z,19.5
2018-08-07T03:15:17.668Z,19.51
2018-08-07T03:16:17.657Z,19.43
2018-08-07T03:17:17.648Z,19.43
2018-08-07T03:18:17.112Z,19.38
2018-08-07T03:19:17.097Z,19.36
2018-08-07T03:20:17.350Z,19.35
2018-08-07T03:21:17.352Z,19.35
2018-08-07T03:22:17.081Z,19.35
2018-08-07T03:23:17.056Z,19.43
2018-08-07T03:24:17.049Z,19.4
2018-08-07T03:25:17.297Z,19.38
2018-08-07T03:26:17.027Z,19.36
2018-08-07T03:27:17.545Z,19.4
2018-08-07T03:28:17.267Z,19.33
2018-08-07T03:29:16.992Z,19.39
2018-08-07T03:30:17.516Z,19.31
2018-08-07T03:31:17.240Z,19.32
2018-08-07T03:32:16.978Z,19.29
2018-08-07T03:33:17.222Z,19.33
2018-08-07T03:34:17.205Z,19.33
2018-08-07T03:35:17.207Z,19.24
2018-08-07T03:36:17.188Z,19.17
2018-08-07T03:37:17.440Z,19.21
2018-08-07T03:38:17.163Z,19.2
2018-08-07T03:39:17.424Z,19.21
2018-08-07T03:40:17.419Z,19.2
2018-08-07T03:41:17.396Z,19.13
2018-08-07T03:42:17.119Z,19.06
2018-08-07T03:43:17.113Z,19.13
2018-08-07T03:44:17.376Z,19.14
2018-08-07T03:45:17.095Z,19.06
2018-08-07T03:46:16.822Z,19.1
2018-08-07T03:47:17.077Z,19.1
2018-08-07T03:48:17.058Z,19.13
2018-08-07T03:49:17.115Z,19.1
2018-08-07T03:50:17.307Z,19.1
2018-08-07T03:51:17.038Z,19.14
2018-08-07T03:52:17.022Z,19.08
2018-08-07T03:53:17.501Z,19.11
2018-08-07T03:54:17.003Z,19.06
2018-08-07T03:55:17.254Z,19.1
2018-08-07T03:56:16.985Z,19.08
2018-08-07T03:57:17.239Z,19.1
2018-08-07T03:58:17.220Z,19.1
2018-08-07T03:59:16.950Z,19.13
2018-08-07T04:00:16.940Z,19.11
2018-08-07T04:01:16.662Z,19.02
2018-08-07T04:02:16.921Z,19.06
2018-08-07T04:03:16.914Z,19.02
2018-08-07T04:04:16.900Z,19.08
2018-08-07T04:05:17.153Z,19.05
2018-08-07T04:06:16.876Z,19.08
2018-08-07T04:07:17.133Z,18.99
2018-08-07T04:08:17.131Z,19.02
2018-08-07T04:09:16.841Z,19.05
2018-08-07T04:10:16.848Z,19.02
2018-08-07T04:11:16.832Z,19.02
2018-08-07T04:12:17.074Z,19.1
2018-08-07T04:13:16.540Z,19.02
2018-08-07T04:14:16.797Z,18.99
2018-08-07T04:15:16.788Z,19.02
2018-08-07T04:16:16.770Z,18.99
2018-08-07T04:17:17.024Z,19.06
2018-08-07T04:18:16.752Z,19.05
2018-08-07T04:19:17.017Z,19.08
2018-08-07T04:20:16.728Z,19.01
2018-08-07T04:21:16.717Z,18.98
2018-08-07T04:22:16.974Z,19.01
2018-08-07T04:23:16.437Z,19.05
2018-08-07T04:24:16.693Z,19.08
2018-08-07T04:25:16.685Z,19.08
2018-08-07T04:26:16.410Z,19.01
2018-08-07T04:27:16.396Z,18.99
2018-08-07T04:28:16.381Z,19.08
2018-08-07T04:29:16.372Z,19.02
2018-08-07T04:30:17.026Z,18.98
2018-08-07T04:31:16.623Z,19.02
2018-08-07T04:32:16.878Z,19.06
2018-08-07T04:33:16.858Z,19.01
2018-08-07T04:34:16.902Z,19.02
2018-08-07T04:35:16.580Z,19.01
2018-08-07T04:36:16.297Z,19.02
2018-08-07T04:37:16.289Z,19.11
2018-08-07T04:38:16.550Z,19.1
2018-08-07T04:39:16.538Z,19.14
2018-08-07T04:40:16.533Z,19.14
2018-08-07T04:41:16.248Z,19.11
2018-08-07T04:42:16.505Z,19.23
2018-08-07T04:43:16.233Z,19.23
2018-08-07T04:44:16.743Z,19.18
2018-08-07T04:45:16.739Z,19.29
2018-08-07T04:46:16.455Z,19.18
2018-08-07T04:47:16.182Z,19.31
2018-08-07T04:48:16.441Z,19.24
2018-08-07T04:49:16.693Z,19.28
2018-08-07T04:50:16.425Z,19.31
2018-08-07T04:51:16.667Z,19.31
2018-08-07T04:52:16.673Z,19.32
2018-08-07T04:53:16.399Z,19.39
2018-08-07T04:54:16.396Z,19.38
2018-08-07T04:55:16.365Z,19.43
2018-08-07T04:56:16.620Z,19.47
2018-08-07T04:57:16.616Z,19.33
2018-08-07T04:58:16.601Z,19.4
2018-08-07T04:59:16.594Z,19.42
2018-08-07T05:00:16.321Z,19.4
2018-08-07T05:01:16.347Z,19.46
2018-08-07T05:02:16.031Z,19.4
2018-08-07T05:03:16.290Z,19.57
2018-08-07T05:04:16.012Z,19.57
2018-08-07T05:05:16.291Z,19.61
2018-08-07T05:06:16.263Z,19.58
2018-08-07T05:07:15.986Z,19.61
2018-08-07T05:08:15.981Z,19.66
2018-08-07T05:09:16.499Z,19.68
2018-08-07T05:10:16.233Z,19.72
2018-08-07T05:11:16.208Z,19.78
2018-08-07T05:12:15.932Z,19.79
2018-08-07T05:13:16.474Z,19.86
2018-08-07T05:14:16.691Z,19.87
2018-08-07T05:15:16.186Z,19.91
2018-08-07T05:16:16.422Z,19.93
2018-08-07T05:17:16.143Z,19.97
2018-08-07T05:18:16.141Z,19.9
2018-08-07T05:19:16.125Z,19.98
2018-08-07T05:20:15.848Z,19.97
2018-08-07T05:21:15.841Z,20.08
2018-08-07T05:22:16.357Z,20.06
2018-08-07T05:23:16.345Z,20.12
2018-08-07T05:24:16.144Z,20.13
2018-08-07T05:25:15.797Z,20.13
2018-08-07T05:26:16.054Z,20.23
2018-08-07T05:27:16.097Z,20.27
2018-08-07T05:28:15.768Z,20.3
2018-08-07T05:29:15.767Z,20.31
2018-08-07T05:30:15.753Z,20.3
2018-08-07T05:31:16.271Z,20.35
2018-08-07T05:32:15.991Z,20.47
2018-08-07T05:33:16.248Z,20.42
2018-08-07T05:34:16.237Z,20.46
2018-08-07T05:35:15.966Z,20.46
2018-08-07T05:36:16.231Z,20.47
2018-08-07T05:37:15.955Z,20.5
2018-08-07T05:38:15.937Z,20.58
2018-08-07T05:39:15.928Z,20.62
2018-08-07T05:40:16.178Z,20.54
2018-08-07T05:41:15.914Z,20.66
2018-08-07T05:42:16.236Z,20.74
2018-08-07T05:43:15.625Z,20.8
2018-08-07T05:44:15.879Z,20.76
2018-08-07T05:45:15.866Z,20.79
2018-08-07T05:46:16.117Z,20.83
2018-08-07T05:47:16.125Z,20.84
2018-08-07T05:48:15.577Z,20.86
2018-08-07T05:49:15.830Z,20.96
2018-08-07T05:50:16.652Z,20.93
2018-08-07T05:51:17.373Z,20.96
2018-08-07T05:52:15.812Z,21.08
2018-08-07T05:53:16.059Z,21.04
2018-08-07T05:54:16.044Z,21.13
2018-08-07T05:55:15.880Z,21.27
2018-08-07T05:56:15.770Z,21.24
2018-08-07T05:57:15.757Z,21.27
2018-08-07T05:58:15.756Z,21.32
2018-08-07T05:59:15.504Z,21.27
2018-08-07T06:00:15.992Z,21.48
2018-08-07T06:01:16.102Z,21.5
2018-08-07T06:02:15.984Z,21.54
2018-08-07T06:03:15.710Z,21.51
2018-08-07T06:04:15.700Z,21.59
2018-08-07T06:05:15.684Z,21.59
2018-08-07T06:06:15.678Z,21.63
2018-08-07T06:07:15.926Z,21.67
2018-08-07T06:08:15.921Z,21.72
2018-08-07T06:09:15.648Z,21.71
2018-08-07T06:10:15.921Z,21.81
2018-08-07T06:11:15.896Z,21.82
2018-08-07T06:12:15.627Z,21.88
2018-08-07T06:13:15.870Z,21.95
2018-08-07T06:14:15.607Z,21.91
2018-08-07T06:15:15.862Z,22.01
2018-08-07T06:16:15.849Z,21.95
2018-08-07T06:17:15.943Z,22.06
2018-08-07T06:18:15.830Z,22.04
2018-08-07T06:19:15.664Z,22.16
2018-08-07T06:20:15.561Z,22.25
2018-08-07T06:21:15.618Z,22.16
2018-08-07T06:22:15.536Z,22.29
2018-08-07T06:23:15.793Z,22.32
2018-08-07T06:24:15.777Z,22.41
2018-08-07T06:25:15.241Z,22.35
2018-08-07T06:26:15.235Z,22.44
2018-08-07T06:27:15.752Z,22.47
2018-08-07T06:28:15.480Z,22.62
2018-08-07T06:29:15.205Z,22.57
2018-08-07T06:30:15.469Z,22.68
2018-08-07T06:31:15.453Z,22.62
2018-08-07T06:32:15.463Z,22.78
2018-08-07T06:33:15.437Z,22.71
2018-08-07T06:34:15.425Z,22.82
2018-08-07T06:35:15.421Z,22.8
2018-08-07T06:36:15.679Z,22.89
2018-08-07T06:37:15.402Z,22.89
2018-08-07T06:38:15.389Z,22.92
2018-08-07T06:39:15.658Z,22.99
2018-08-07T06:40:15.644Z,23.14
2018-08-07T06:41:15.384Z,23.14
2018-08-07T06:42:15.364Z,23.24
2018-08-07T06:43:15.355Z,23.24
2018-08-07T06:44:15.359Z,23.39
2018-08-07T06:45:15.338Z,23.4
2018-08-07T06:46:15.330Z,23.45
2018-08-07T06:47:15.592Z,23.53
2018-08-07T06:48:15.558Z,23.55
2018-08-07T06:49:15.318Z,23.58
2018-08-07T06:50:15.716Z,23.57
2018-08-07T06:51:15.029Z,23.64
2018-08-07T06:52:15.019Z,23.65
2018-08-07T06:53:15.278Z,23.75
2018-08-07T06:54:15.536Z,23.83
2018-08-07T06:55:15.520Z,23.77
2018-08-07T06:56:14.983Z,23.79
2018-08-07T06:57:15.661Z,23.82
2018-08-07T06:58:15.231Z,23.87
2018-08-07T06:59:15.493Z,23.97
2018-08-07T07:00:15.484Z,23.94
2018-08-07T07:01:15.214Z,24.05
2018-08-07T07:02:15.201Z,24.05
2018-08-07T07:03:15.451Z,24.13
2018-08-07T07:04:15.231Z,24.14
2018-08-07T07:05:15.189Z,24.23
2018-08-07T07:06:15.433Z,24.27
2018-08-07T07:07:15.169Z,24.41
2018-08-07T07:08:15.158Z,24.34
2018-08-07T07:09:15.406Z,24.45
2018-08-07T07:10:15.140Z,24.49
2018-08-07T07:11:15.130Z,24.56
2018-08-07T07:12:14.871Z,24.52
2018-08-07T07:13:15.123Z,24.6
2018-08-07T07:14:15.380Z,24.67
2018-08-07T07:15:15.104Z,24.64
2018-08-07T07:16:15.372Z,24.8
2018-08-07T07:17:15.095Z,24.83
2018-08-07T07:18:15.349Z,24.92
2018-08-07T07:19:15.335Z,24.9
2018-08-07T07:20:14.802Z,24.98
2018-08-07T07:21:15.070Z,25.02
2018-08-07T07:22:15.324Z,25.1
2018-08-07T07:23:15.053Z,25.05
2018-08-07T07:24:15.311Z,25.19
2018-08-07T07:25:15.042Z,25.24
2018-08-07T07:26:14.808Z,25.28
2018-08-07T07:27:15.030Z,25.31
2018-08-07T07:28:15.016Z,25.34
2018-08-07T07:29:14.736Z,25.44
2018-08-07T07:30:15.001Z,25.44
2018-08-07T07:31:15.263Z,25.57
2018-08-07T07:32:15.255Z,25.47
2018-08-07T07:33:15.251Z,25.68
2018-08-07T07:34:15.288Z,25.71
2018-08-07T07:35:14.971Z,25.72
2018-08-07T07:36:14.963Z,25.8
2018-08-07T07:37:15.228Z,25.84
2018-08-07T07:38:15.224Z,25.87
2018-08-07T07:39:15.214Z,25.98
2018-08-07T07:40:15.195Z,26.08
2018-08-07T07:41:14.930Z,26.12
2018-08-07T07:42:15.194Z,26.09
2018-08-07T07:43:14.925Z,26.21
2018-08-07T07:44:14.654Z,26.4
2018-08-07T07:45:14.906Z,26.35
2018-08-07T07:46:14.903Z,26.46
2018-08-07T07:47:15.022Z,26.57
2018-08-07T07:48:14.945Z,26.58
2018-08-07T07:49:14.616Z,26.54
2018-08-07T07:50:15.151Z,26.74
2018-08-07T07:51:14.862Z,26.76
2018-08-07T07:52:14.860Z,26.89
2018-08-07T07:53:15.116Z,26.96
2018-08-07T07:54:14.851Z,27.04
2018-08-07T07:55:14.866Z,27.1
2018-08-07T07:56:14.838Z,27.26
2018-08-07T07:57:15.100Z,27.24
2018-08-07T07:58:14.563Z,27.38
2018-08-07T07:59:14.818Z,27.43
2018-08-07T08:00:14.811Z,27.59
2018-08-07T08:01:15.120Z,27.54
2018-08-07T08:02:14.800Z,27.67
2018-08-07T08:03:15.059Z,27.69
2018-08-07T08:04:14.530Z,27.76
2018-08-07T08:05:14.900Z,27.74
2018-08-07T08:06:14.779Z,27.85
2018-08-07T08:07:14.777Z,27.91
2018-08-07T08:08:14.775Z,27.86
2018-08-07T08:09:14.769Z,27.98
2018-08-07T08:10:14.765Z,27.98
2018-08-07T08:11:14.823Z,28.06
2018-08-07T08:12:14.763Z,28.04
2018-08-07T08:13:14.745Z,28.23
2018-08-07T08:14:14.742Z,28.28
2018-08-07T08:15:14.474Z,28.35
2018-08-07T08:16:15.048Z,28.43
2018-08-07T08:17:14.722Z,28.38
2018-08-07T08:18:14.720Z,28.43
2018-08-07T08:19:14.981Z,28.53
2018-08-07T08:20:14.711Z,28.59
2018-08-07T08:21:14.705Z,29.04
2018-08-07T08:22:14.706Z,29.65
2018-08-07T08:23:14.690Z,29.78
2018-08-07T08:24:14.430Z,29.74
2018-08-07T08:25:14.689Z,29.89
2018-08-07T08:26:14.687Z,29.92
2018-08-07T08:27:14.687Z,29.81
2018-08-07T08:28:14.943Z,29.86
2018-08-07T08:29:15.335Z,29.93
2018-08-07T08:30:15.166Z,29.94
2018-08-07T08:31:15.184Z,30.14
2018-08-07T08:32:14.399Z,30.3
2018-08-07T08:33:14.657Z,30.38
2018-08-07T08:34:14.388Z,30.59
2018-08-07T08:35:15.029Z,30.96
2018-08-07T08:36:14.929Z,31.87
2018-08-07T08:37:14.653Z,32.73
2018-08-07T08:38:14.923Z,33.11
2018-08-07T08:39:14.915Z,33.06
2018-08-07T08:40:14.637Z,32.85
2018-08-07T08:41:14.363Z,32.59
2018-08-07T08:42:14.369Z,32.36
2018-08-07T08:43:14.356Z,32.17
2018-08-07T08:44:14.622Z,31.98
2018-08-07T08:45:14.877Z,31.67
2018-08-07T08:46:14.610Z,31.31
2018-08-07T08:47:14.608Z,31.04
2018-08-07T08:48:14.697Z,30.67
2018-08-07T08:49:14.344Z,30.3
2018-08-07T08:50:14.604Z,30.07
2018-08-07T08:51:14.600Z,29.89
2018-08-07T08:52:14.597Z,29.72
2018-08-07T08:53:14.592Z,29.66
2018-08-07T08:54:14.325Z,29.74
2018-08-07T08:55:14.588Z,29.87
2018-08-07T08:56:14.590Z,29.93
2018-08-07T08:57:14.581Z,30.18
2018-08-07T08:58:14.579Z,30.29
2018-08-07T08:59:14.580Z,30.43
2018-08-07T09:00:14.575Z,30.37
2018-08-07T09:01:14.832Z,30.43
2018-08-07T09:02:14.303Z,30.56
2018-08-07T09:03:14.582Z,30.57
2018-08-07T09:04:14.553Z,30.62
2018-08-07T09:05:14.561Z,30.68
2018-08-07T09:06:14.287Z,30.75
2018-08-07T09:07:14.286Z,30.74
2018-08-07T09:08:14.544Z,30.75
2018-08-07T09:09:14.278Z,30.78
2018-08-07T09:10:14.582Z,30.78
2018-08-07T09:11:14.539Z,30.74
2018-08-07T09:12:14.791Z,30.93
2018-08-07T09:13:14.808Z,30.96
2018-08-07T09:14:14.789Z,31.01
2018-08-07T09:15:14.516Z,31.15
2018-08-07T09:16:14.254Z,31.33
2018-08-07T09:17:14.801Z,31.4
2018-08-07T09:18:14.535Z,31.42
2018-08-07T09:19:14.514Z,31.43
2018-08-07T09:20:14.541Z,31.38
2018-08-07T09:21:14.504Z,31.38
2018-08-07T09:22:14.499Z,31.39
2018-08-07T09:23:14.759Z,31.45
2018-08-07T09:24:14.501Z,31.5
2018-08-07T09:25:14.639Z,31.72
2018-08-07T09:26:15.100Z,31.73
2018-08-07T09:27:14.490Z,31.88
2018-08-07T09:28:15.094Z,31.8
2018-08-07T09:29:14.475Z,31.73
2018-08-07T09:30:14.476Z,31.75
2018-08-07T09:31:14.736Z,31.79
2018-08-07T09:32:14.469Z,31.73
2018-08-07T09:33:14.471Z,31.72
2018-08-07T09:34:14.740Z,31.72
2018-08-07T09:35:14.467Z,31.72
2018-08-07T09:36:14.464Z,31.77
2018-08-07T09:37:14.195Z,31.85
2018-08-07T09:38:14.468Z,31.84
2018-08-07T09:39:14.455Z,31.88
2018-08-07T09:40:14.540Z,31.96
2018-08-07T09:41:14.180Z,31.95
2018-08-07T09:42:14.476Z,31.98
2018-08-07T09:43:14.700Z,32.07
2018-08-07T09:44:14.709Z,32.14
2018-08-07T09:45:14.693Z,32.2
2018-08-07T09:46:14.168Z,32.22
2018-08-07T09:47:14.472Z,32.32
2018-08-07T09:48:14.682Z,32.4
2018-08-07T09:49:14.686Z,32.49
2018-08-07T09:50:14.158Z,32.51
2018-08-07T09:51:14.683Z,32.52
2018-08-07T09:52:14.496Z,32.48
2018-08-07T09:53:14.726Z,32.58
2018-08-07T09:54:14.720Z,32.55
2018-08-07T09:55:14.136Z,32.67
2018-08-07T09:56:14.133Z,32.73
2018-08-07T09:57:14.429Z,32.81
2018-08-07T09:58:14.753Z,32.85
2018-08-07T09:59:14.131Z,32.99
2018-08-07T10:00:14.402Z,32.93
2018-08-07T10:01:14.395Z,33.01
2018-08-07T10:02:14.410Z,33.07
2018-08-07T10:03:14.655Z,33.07
2018-08-07T10:04:14.114Z,32.93
2018-08-07T10:05:14.504Z,32.93
2018-08-07T10:06:14.110Z,32.99
2018-08-07T10:07:14.371Z,33.07
2018-08-07T10:08:14.376Z,33.22
2018-08-07T10:09:14.631Z,33.3
2018-08-07T10:10:14.709Z,33.3
2018-08-07T10:11:14.107Z,33.23
2018-08-07T10:12:14.350Z,33.26
2018-08-07T10:13:14.673Z,33.22
2018-08-07T10:14:14.098Z,33.31
2018-08-07T10:15:14.343Z,33.31
2018-08-07T10:16:14.387Z,33.26
2018-08-07T10:17:14.078Z,33.29
2018-08-07T10:18:14.608Z,33.33
2018-08-07T10:19:14.073Z,33.39
2018-08-07T10:20:14.154Z,33.46
2018-08-07T10:21:14.351Z,33.58
2018-08-07T10:22:14.150Z,33.68
2018-08-07T10:23:14.808Z,33.73
2018-08-07T10:24:14.820Z,33.85
2018-08-07T10:25:14.324Z,33.98
2018-08-07T10:26:14.334Z,34.22
2018-08-07T10:27:14.362Z,34.34
2018-08-07T10:28:14.312Z,34.35
2018-08-07T10:29:14.577Z,34.44
2018-08-07T10:30:14.593Z,34.46
2018-08-07T10:31:14.259Z,34.64
2018-08-07T10:32:14.309Z,34.57
2018-08-07T10:33:14.321Z,34.56
2018-08-07T10:34:14.309Z,34.76
2018-08-07T10:35:14.510Z,34.86
2018-08-07T10:36:14.361Z,34.94
2018-08-07T10:37:14.300Z,35.17
2018-08-07T10:38:14.304Z,35.33
2018-08-07T10:39:14.295Z,35.62
2018-08-07T10:40:14.562Z,35.81
2018-08-07T10:41:15.003Z,36.17
2018-08-07T10:42:14.561Z,36.45
2018-08-07T10:43:14.167Z,36.67
2018-08-07T10:44:14.454Z,36.95
2018-08-07T10:45:14.312Z,37.21
2018-08-07T10:46:14.043Z,37.74
2018-08-07T10:47:14.573Z,38.07
2018-08-07T10:48:14.599Z,38.36
2018-08-07T10:49:14.576Z,38.68
2018-08-07T10:50:14.316Z,39.1
2018-08-07T10:51:14.583Z,39.46
2018-08-07T10:52:14.777Z,39.88
2018-08-07T10:53:14.588Z,40.24
2018-08-07T10:54:14.322Z,40.56
2018-08-07T10:55:14.328Z,40.91
2018-08-07T10:56:14.349Z,40.71
2018-08-07T10:57:14.620Z,40.75
2018-08-07T10:58:14.443Z,41.13
2018-08-07T10:59:14.613Z,41.46
2018-08-07T11:00:14.635Z,41.85
2018-08-07T11:01:14.357Z,42.13
2018-08-07T11:02:14.633Z,42.41
2018-08-07T11:03:14.639Z,42.54
2018-08-07T11:04:14.637Z,42.68
2018-08-07T11:05:14.395Z,42.87
2018-08-07T11:06:14.131Z,43.03
2018-08-07T11:07:14.663Z,42.9
2018-08-07T11:08:14.683Z,42.94
2018-08-07T11:09:14.678Z,42.85
2018-08-07T11:10:14.688Z,42.85
2018-08-07T11:11:14.696Z,42.83
2018-08-07T11:12:14.709Z,42.83
2018-08-07T11:13:14.700Z,42.66
2018-08-07T11:14:14.706Z,42.44
2018-08-07T11:15:14.717Z,42.65
2018-08-07T11:16:14.739Z,42.66
2018-08-07T11:17:14.466Z,42.34
2018-08-07T11:18:14.745Z,42.28
2018-08-07T11:19:14.496Z,42.6
2018-08-07T11:20:14.501Z,42.81
2018-08-07T11:21:14.505Z,43.03
2018-08-07T11:22:14.512Z,42.84
2018-08-07T11:23:14.511Z,42.81
2018-08-07T11:24:14.262Z,42.83
2018-08-07T11:25:14.545Z,42.9
2018-08-07T11:26:14.847Z,42.9
2018-08-07T11:27:14.832Z,42.99
2018-08-07T11:28:14.829Z,42.92
2018-08-07T11:29:14.832Z,42.94
2018-08-07T11:30:14.626Z,43.25
2018-08-07T11:31:14.610Z,43.32
2018-08-07T11:32:14.600Z,43.39
2018-08-07T11:33:14.625Z,43.25
2018-08-07T11:34:14.875Z,42.92
2018-08-07T11:35:14.622Z,42.99
2018-08-07T11:36:14.634Z,43.06
2018-08-07T11:37:14.393Z,43.18
2018-08-07T11:38:14.377Z,43.19
2018-08-07T11:39:14.650Z,43.11
2018-08-07T11:40:14.922Z,43.18
2018-08-07T11:41:14.727Z,43.44
2018-08-07T11:42:14.686Z,43.67
2018-08-07T11:43:14.421Z,44.01
2018-08-07T11:44:14.958Z,44.1
2018-08-07T11:45:14.708Z,44.26
2018-08-07T11:46:14.713Z,44.42
2018-08-07T11:47:14.457Z,44.39
2018-08-07T11:48:15.249Z,44.43
2018-08-07T11:49:15.008Z,44.59
2018-08-07T11:50:15.009Z,44.74
2018-08-07T11:51:15.017Z,44.7
2018-08-07T11:52:14.777Z,44.84
2018-08-07T11:53:15.032Z,44.9
2018-08-07T11:54:15.046Z,45.05
2018-08-07T11:55:14.798Z,45.16
2018-08-07T11:56:15.159Z,45.31
2018-08-07T11:57:15.081Z,45.37
2018-08-07T11:58:14.822Z,45.45
2018-08-07T11:59:14.839Z,45.45
2018-08-07T12:00:15.098Z,45.49
2018-08-07T12:01:14.847Z,45.68
2018-08-07T12:02:15.120Z,45.65
2018-08-07T12:03:14.865Z,45.54
2018-08-07T12:04:15.144Z,45.39
2018-08-07T12:05:14.884Z,45.46
2018-08-07T12:06:14.891Z,45.42
2018-08-07T12:07:14.909Z,45.15
2018-08-07T12:08:14.936Z,45.39
2018-08-07T12:09:14.921Z,45.66
2018-08-07T12:10:14.951Z,45.99
2018-08-07T12:11:15.208Z,45.99
2018-08-07T12:12:14.951Z,45.95
2018-08-07T12:13:14.955Z,45.96
2018-08-07T12:14:14.978Z,46.11
2018-08-07T12:15:15.246Z,46.34
2018-08-07T12:16:15.412Z,45.97
2018-08-07T12:17:15.263Z,45.3
2018-08-07T12:18:15.303Z,44.52
2018-08-07T12:19:15.292Z,44.43
2018-08-07T12:20:14.777Z,44.42
2018-08-07T12:21:15.316Z,43.99
2018-08-07T12:22:15.325Z,43.6
2018-08-07T12:23:15.323Z,43.65
2018-08-07T12:24:15.073Z,43.98
2018-08-07T12:25:15.374Z,44.31
2018-08-07T12:26:15.357Z,44.11
2018-08-07T12:27:15.097Z,44.06
2018-08-07T12:28:15.107Z,44.11
2018-08-07T12:29:15.126Z,44.14
2018-08-07T12:30:15.127Z,44.24
2018-08-07T12:31:15.340Z,44.36
2018-08-07T12:32:15.143Z,44.35
2018-08-07T12:33:15.160Z,44.42
2018-08-07T12:34:15.164Z,44.29
2018-08-07T12:35:15.389Z,44.16
2018-08-07T12:36:15.448Z,44.32
2018-08-07T12:37:15.191Z,44.59
2018-08-07T12:38:15.197Z,44.94
2018-08-07T12:39:15.216Z,45.11
2018-08-07T12:40:15.222Z,45.18
2018-08-07T12:41:15.678Z,44.93
2018-08-07T12:42:15.237Z,45.04
2018-08-07T12:43:15.242Z,45.02
2018-08-07T12:44:15.517Z,45.18
2018-08-07T12:45:15.538Z,44.58
2018-08-07T12:46:15.270Z,44.43
2018-08-07T12:47:15.551Z,44.62
2018-08-07T12:48:15.574Z,44.55
2018-08-07T12:49:15.307Z,44.74
2018-08-07T12:50:15.043Z,44.86
2018-08-07T12:51:15.317Z,44.89
2018-08-07T12:52:15.605Z,45.05
2018-08-07T12:53:15.762Z,45.31
2018-08-07T12:54:15.086Z,44.75
2018-08-07T12:55:15.367Z,44.24